sensor_id;sensor_type;location;lat;lon;timestamp;P1;durP1;ratioP1;P2;durP2;ratioP2
50002;SDS011;35889;51.442;6.408;2022-07-29T00:00:37;0.60;;;0.60;;
50002;SDS011;35889;51.442;6.408;2022-07-29T00:03:02;0.60;;;0.60;;
50002;SDS011;35889;51.442;6.408;2022-07-29T00:05:27;0.50;;;0.50;;
50002;SDS011;35889;51.442;6.408;2022-07-29T00:07:53;0.60;;;0.60;;
50002;SDS011;35889;51.442;6.408;2022-07-29T00:10:18;0.60;;;0.60;;
50002;SDS011;35889;51.442;6.408;2022-07-29T00:12:43;0.60;;;0.60;;
50002;SDS011;35889;51.442;6.408;2022-07-29T00:15:08;0.60;;;0.60;;
50002;SDS011;35889;51.442;6.408;2022-07-29T00:17:34;0.60;;;0.60;;
50002;SDS011;35889;51.442;6.408;2022-07-29T00:19:59;0.60;;;0.60;;
50002;SDS011;35889;51.442;6.408;2022-07-29T00:22:24;0.60;;;0.60;;
50002;SDS011;35889;51.442;6.408;2022-07-29T00:24:49;0.60;;;0.60;;
50002;SDS011;35889;51.442;6.408;2022-07-29T00:27:15;0.52;;;0.52;;
50002;SDS011;35889;51.442;6.408;2022-07-29T00:29:40;0.60;;;0.60;;
50002;SDS011;35889;51.442;6.408;2022-07-29T00:32:05;0.60;;;0.60;;
50002;SDS011;35889;51.442;6.408;2022-07-29T00:34:31;0.60;;;0.60;;
50002;SDS011;35889;51.442;6.408;2022-07-29T00:37:15;0.60;;;0.60;;
50002;SDS011;35889;51.442;6.408;2022-07-29T00:39:40;0.60;;;0.60;;
50002;SDS011;35889;51.442;6.408;2022-07-29T00:42:05;0.60;;;0.60;;
50002;SDS011;35889;51.442;6.408;2022-07-29T00:44:32;0.60;;;0.60;;
50002;SDS011;35889;51.442;6.408;2022-07-29T00:47:00;0.60;;;0.60;;
50002;SDS011;35889;51.442;6.408;2022-07-29T00:49:25;0.60;;;0.60;;
50002;SDS011;35889;51.442;6.408;2022-07-29T00:51:52;0.60;;;0.60;;
50002;SDS011;35889;51.442;6.408;2022-07-29T00:54:17;0.60;;;0.60;;
50002;SDS011;35889;51.442;6.408;2022-07-29T00:56:42;0.60;;;0.60;;
50002;SDS011;35889;51.442;6.408;2022-07-29T00:59:08;0.60;;;0.60;;
50002;SDS011;35889;51.442;6.408;2022-07-29T01:01:33;0.60;;;0.60;;
50002;SDS011;35889;51.442;6.408;2022-07-29T01:03:59;0.60;;;0.60;;
50002;SDS011;35889;51.442;6.408;2022-07-29T01:06:24;0.60;;;0.60;;
50002;SDS011;35889;51.442;6.408;2022-07-29T01:08:49;0.60;;;0.60;;
50002;SDS011;35889;51.442;6.408;2022-07-29T01:11:15;0.60;;;0.60;;
50002;SDS011;35889;51.442;6.408;2022-07-29T01:13:41;0.60;;;0.60;;
50002;SDS011;35889;51.442;6.408;2022-07-29T01:16:12;0.60;;;0.60;;
50002;SDS011;35889;51.442;6.408;2022-07-29T01:18:39;0.60;;;0.60;;
50002;SDS011;35889;51.442;6.408;2022-07-29T01:26:36;0.60;;;0.60;;
50002;SDS011;35889;51.442;6.408;2022-07-29T01:32:01;0.60;;;0.60;;
50002;SDS011;35889;51.442;6.408;2022-07-29T01:34:28;0.50;;;0.50;;
50002;SDS011;35889;51.442;6.408;2022-07-29T01:36:57;0.60;;;0.60;;
50002;SDS011;35889;51.442;6.408;2022-07-29T01:39:31;0.60;;;0.60;;
50002;SDS011;35889;51.442;6.408;2022-07-29T01:42:12;0.55;;;0.55;;
50002;SDS011;35889;51.442;6.408;2022-07-29T01:44:41;0.60;;;0.60;;
50002;SDS011;35889;51.442;6.408;2022-07-29T01:47:11;0.55;;;0.55;;
50002;SDS011;35889;51.442;6.408;2022-07-29T01:49:39;0.60;;;0.60;;
50002;SDS011;35889;51.442;6.408;2022-07-29T01:52:07;0.50;;;0.50;;
50002;SDS011;35889;51.442;6.408;2022-07-29T01:54:37;0.60;;;0.60;;
50002;SDS011;35889;51.442;6.408;2022-07-29T01:57:04;0.60;;;0.60;;
50002;SDS011;35889;51.442;6.408;2022-07-29T01:59:29;0.50;;;0.50;;
50002;SDS011;35889;51.442;6.408;2022-07-29T02:01:57;0.60;;;0.60;;
50002;SDS011;35889;51.442;6.408;2022-07-29T02:04:22;0.60;;;0.60;;
50002;SDS011;35889;51.442;6.408;2022-07-29T02:06:49;0.60;;;0.60;;
50002;SDS011;35889;51.442;6.408;2022-07-29T02:09:15;0.60;;;0.60;;
50002;SDS011;35889;51.442;6.408;2022-07-29T02:11:44;0.70;;;0.70;;
50002;SDS011;35889;51.442;6.408;2022-07-29T02:14:12;0.60;;;0.60;;
50002;SDS011;35889;51.442;6.408;2022-07-29T02:16:39;0.60;;;0.60;;
50002;SDS011;35889;51.442;6.408;2022-07-29T02:19:05;0.60;;;0.60;;
50002;SDS011;35889;51.442;6.408;2022-07-29T02:21:31;0.60;;;0.60;;
50002;SDS011;35889;51.442;6.408;2022-07-29T02:23:59;0.60;;;0.60;;
50002;SDS011;35889;51.442;6.408;2022-07-29T02:26:25;0.60;;;0.60;;
50002;SDS011;35889;51.442;6.408;2022-07-29T02:28:51;0.70;;;0.70;;
50002;SDS011;35889;51.442;6.408;2022-07-29T02:31:18;0.60;;;0.60;;
50002;SDS011;35889;51.442;6.408;2022-07-29T02:33:45;0.60;;;0.60;;
50002;SDS011;35889;51.442;6.408;2022-07-29T02:36:11;0.60;;;0.60;;
50002;SDS011;35889;51.442;6.408;2022-07-29T02:38:37;0.60;;;0.60;;
50002;SDS011;35889;51.442;6.408;2022-07-29T02:41:29;0.70;;;0.70;;
50002;SDS011;35889;51.442;6.408;2022-07-29T02:43:56;0.60;;;0.60;;
50002;SDS011;35889;51.442;6.408;2022-07-29T02:46:31;0.60;;;0.60;;
50002;SDS011;35889;51.442;6.408;2022-07-29T02:51:33;0.60;;;0.60;;
50002;SDS011;35889;51.442;6.408;2022-07-29T02:54:01;0.60;;;0.60;;
50002;SDS011;35889;51.442;6.408;2022-07-29T02:56:31;0.60;;;0.60;;
50002;SDS011;35889;51.442;6.408;2022-07-29T02:59:01;0.60;;;0.60;;
50002;SDS011;35889;51.442;6.408;2022-07-29T03:01:30;0.50;;;0.50;;
50002;SDS011;35889;51.442;6.408;2022-07-29T03:03:56;0.52;;;0.52;;
50002;SDS011;35889;51.442;6.408;2022-07-29T03:06:22;0.60;;;0.60;;
50002;SDS011;35889;51.442;6.408;2022-07-29T03:08:48;0.60;;;0.60;;
50002;SDS011;35889;51.442;6.408;2022-07-29T03:11:14;0.60;;;0.60;;
50002;SDS011;35889;51.442;6.408;2022-07-29T03:13:40;0.60;;;0.60;;
50002;SDS011;35889;51.442;6.408;2022-07-29T03:16:06;0.50;;;0.50;;
50002;SDS011;35889;51.442;6.408;2022-07-29T03:18:33;0.60;;;0.60;;
50002;SDS011;35889;51.442;6.408;2022-07-29T03:20:59;0.60;;;0.60;;
50002;SDS011;35889;51.442;6.408;2022-07-29T03:23:24;0.60;;;0.60;;
50002;SDS011;35889;51.442;6.408;2022-07-29T03:25:51;0.60;;;0.60;;
50002;SDS011;35889;51.442;6.408;2022-07-29T03:28:16;0.60;;;0.60;;
50002;SDS011;35889;51.442;6.408;2022-07-29T03:30:41;0.60;;;0.60;;
50002;SDS011;35889;51.442;6.408;2022-07-29T03:33:07;0.60;;;0.60;;
50002;SDS011;35889;51.442;6.408;2022-07-29T03:35:32;0.60;;;0.60;;
50002;SDS011;35889;51.442;6.408;2022-07-29T03:37:58;0.60;;;0.60;;
50002;SDS011;35889;51.442;6.408;2022-07-29T03:40:27;0.60;;;0.60;;
50002;SDS011;35889;51.442;6.408;2022-07-29T03:42:56;0.60;;;0.60;;
50002;SDS011;35889;51.442;6.408;2022-07-29T03:45:22;0.60;;;0.60;;
50002;SDS011;35889;51.442;6.408;2022-07-29T03:47:52;0.50;;;0.50;;
50002;SDS011;35889;51.442;6.408;2022-07-29T03:50:18;0.60;;;0.60;;
50002;SDS011;35889;51.442;6.408;2022-07-29T03:52:45;0.50;;;0.50;;
50002;SDS011;35889;51.442;6.408;2022-07-29T03:55:10;0.50;;;0.50;;
50002;SDS011;35889;51.442;6.408;2022-07-29T03:57:35;0.60;;;0.60;;
50002;SDS011;35889;51.442;6.408;2022-07-29T04:00:01;0.50;;;0.50;;
50002;SDS011;35889;51.442;6.408;2022-07-29T04:02:29;0.50;;;0.50;;
50002;SDS011;35889;51.442;6.408;2022-07-29T04:04:54;0.57;;;0.57;;
50002;SDS011;35889;51.442;6.408;2022-07-29T04:07:19;0.55;;;0.55;;
50002;SDS011;35889;51.442;6.408;2022-07-29T04:09:45;0.50;;;0.50;;
50002;SDS011;35889;51.442;6.408;2022-07-29T04:12:10;0.57;;;0.57;;
50002;SDS011;35889;51.442;6.408;2022-07-29T04:14:35;0.60;;;0.60;;
50002;SDS011;35889;51.442;6.408;2022-07-29T04:17:01;0.50;;;0.50;;
50002;SDS011;35889;51.442;6.408;2022-07-29T04:19:26;0.50;;;0.50;;
50002;SDS011;35889;51.442;6.408;2022-07-29T04:21:52;0.60;;;0.60;;
50002;SDS011;35889;51.442;6.408;2022-07-29T04:24:17;0.68;;;0.68;;
50002;SDS011;35889;51.442;6.408;2022-07-29T04:26:42;0.70;;;0.70;;
50002;SDS011;35889;51.442;6.408;2022-07-29T04:29:08;0.60;;;0.60;;
50002;SDS011;35889;51.442;6.408;2022-07-29T04:31:33;0.60;;;0.60;;
50002;SDS011;35889;51.442;6.408;2022-07-29T04:33:58;0.50;;;0.50;;
50002;SDS011;35889;51.442;6.408;2022-07-29T04:36:24;0.60;;;0.60;;
50002;SDS011;35889;51.442;6.408;2022-07-29T04:38:49;0.60;;;0.60;;
50002;SDS011;35889;51.442;6.408;2022-07-29T04:41:14;0.60;;;0.60;;
50002;SDS011;35889;51.442;6.408;2022-07-29T04:43:40;0.60;;;0.60;;
50002;SDS011;35889;51.442;6.408;2022-07-29T04:46:06;0.70;;;0.70;;
50002;SDS011;35889;51.442;6.408;2022-07-29T04:48:31;0.60;;;0.60;;
50002;SDS011;35889;51.442;6.408;2022-07-29T04:50:56;0.60;;;0.60;;
50002;SDS011;35889;51.442;6.408;2022-07-29T04:53:22;0.60;;;0.60;;
50002;SDS011;35889;51.442;6.408;2022-07-29T04:55:47;0.60;;;0.60;;
50002;SDS011;35889;51.442;6.408;2022-07-29T04:58:12;0.60;;;0.60;;
50002;SDS011;35889;51.442;6.408;2022-07-29T05:00:38;0.60;;;0.60;;
50002;SDS011;35889;51.442;6.408;2022-07-29T05:03:03;0.60;;;0.60;;
50002;SDS011;35889;51.442;6.408;2022-07-29T05:05:29;0.60;;;0.60;;
50002;SDS011;35889;51.442;6.408;2022-07-29T05:07:54;0.60;;;0.60;;
50002;SDS011;35889;51.442;6.408;2022-07-29T05:10:20;0.70;;;0.70;;
50002;SDS011;35889;51.442;6.408;2022-07-29T05:12:45;0.60;;;0.60;;
50002;SDS011;35889;51.442;6.408;2022-07-29T05:15:10;0.60;;;0.60;;
50002;SDS011;35889;51.442;6.408;2022-07-29T05:17:36;0.60;;;0.60;;
50002;SDS011;35889;51.442;6.408;2022-07-29T05:20:01;0.60;;;0.60;;
50002;SDS011;35889;51.442;6.408;2022-07-29T05:22:26;0.60;;;0.60;;
50002;SDS011;35889;51.442;6.408;2022-07-29T05:24:51;0.60;;;0.60;;
50002;SDS011;35889;51.442;6.408;2022-07-29T05:27:17;0.60;;;0.60;;
50002;SDS011;35889;51.442;6.408;2022-07-29T05:29:42;0.60;;;0.60;;
50002;SDS011;35889;51.442;6.408;2022-07-29T05:32:07;0.60;;;0.60;;
50002;SDS011;35889;51.442;6.408;2022-07-29T05:34:33;0.60;;;0.60;;
50002;SDS011;35889;51.442;6.408;2022-07-29T05:36:58;0.70;;;0.70;;
50002;SDS011;35889;51.442;6.408;2022-07-29T05:39:23;0.60;;;0.60;;
50002;SDS011;35889;51.442;6.408;2022-07-29T05:41:49;0.60;;;0.60;;
50002;SDS011;35889;51.442;6.408;2022-07-29T05:44:14;0.60;;;0.60;;
50002;SDS011;35889;51.442;6.408;2022-07-29T05:46:39;0.60;;;0.60;;
50002;SDS011;35889;51.442;6.408;2022-07-29T05:49:05;0.60;;;0.60;;
50002;SDS011;35889;51.442;6.408;2022-07-29T05:51:31;0.60;;;0.60;;
50002;SDS011;35889;51.442;6.408;2022-07-29T05:53:57;0.60;;;0.60;;
50002;SDS011;35889;51.442;6.408;2022-07-29T05:56:22;0.60;;;0.60;;
50002;SDS011;35889;51.442;6.408;2022-07-29T05:58:48;0.60;;;0.60;;
50002;SDS011;35889;51.442;6.408;2022-07-29T06:01:13;0.60;;;0.60;;
50002;SDS011;35889;51.442;6.408;2022-07-29T06:03:38;0.60;;;0.60;;
50002;SDS011;35889;51.442;6.408;2022-07-29T06:06:06;0.60;;;0.60;;
50002;SDS011;35889;51.442;6.408;2022-07-29T06:08:32;0.60;;;0.60;;
50002;SDS011;35889;51.442;6.408;2022-07-29T06:10:58;0.60;;;0.60;;
50002;SDS011;35889;51.442;6.408;2022-07-29T06:13:24;0.60;;;0.60;;
50002;SDS011;35889;51.442;6.408;2022-07-29T06:15:49;0.60;;;0.60;;
50002;SDS011;35889;51.442;6.408;2022-07-29T06:18:14;0.60;;;0.60;;
50002;SDS011;35889;51.442;6.408;2022-07-29T06:20:39;0.60;;;0.60;;
50002;SDS011;35889;51.442;6.408;2022-07-29T06:23:05;0.60;;;0.60;;
50002;SDS011;35889;51.442;6.408;2022-07-29T06:25:30;0.60;;;0.60;;
50002;SDS011;35889;51.442;6.408;2022-07-29T06:27:56;0.60;;;0.60;;
50002;SDS011;35889;51.442;6.408;2022-07-29T06:30:21;0.60;;;0.60;;
50002;SDS011;35889;51.442;6.408;2022-07-29T06:32:47;0.60;;;0.60;;
50002;SDS011;35889;51.442;6.408;2022-07-29T06:35:12;0.50;;;0.50;;
50002;SDS011;35889;51.442;6.408;2022-07-29T06:37:37;0.60;;;0.60;;
50002;SDS011;35889;51.442;6.408;2022-07-29T06:40:03;0.60;;;0.60;;
50002;SDS011;35889;51.442;6.408;2022-07-29T06:42:47;0.60;;;0.60;;
50002;SDS011;35889;51.442;6.408;2022-07-29T06:45:13;0.60;;;0.60;;
50002;SDS011;35889;51.442;6.408;2022-07-29T06:47:38;0.60;;;0.60;;
50002;SDS011;35889;51.442;6.408;2022-07-29T06:50:04;0.55;;;0.55;;
50002;SDS011;35889;51.442;6.408;2022-07-29T06:52:29;0.60;;;0.60;;
50002;SDS011;35889;51.442;6.408;2022-07-29T06:54:55;0.60;;;0.60;;
50002;SDS011;35889;51.442;6.408;2022-07-29T06:57:21;0.60;;;0.60;;
50002;SDS011;35889;51.442;6.408;2022-07-29T06:59:46;0.60;;;0.60;;
50002;SDS011;35889;51.442;6.408;2022-07-29T07:02:11;0.60;;;0.60;;
50002;SDS011;35889;51.442;6.408;2022-07-29T07:04:36;0.60;;;0.60;;
50002;SDS011;35889;51.442;6.408;2022-07-29T07:07:02;0.60;;;0.60;;
50002;SDS011;35889;51.442;6.408;2022-07-29T07:09:27;0.57;;;0.57;;
50002;SDS011;35889;51.442;6.408;2022-07-29T07:11:53;0.60;;;0.60;;
50002;SDS011;35889;51.442;6.408;2022-07-29T07:14:18;0.60;;;0.60;;
50002;SDS011;35889;51.442;6.408;2022-07-29T07:16:43;0.60;;;0.60;;
50002;SDS011;35889;51.442;6.408;2022-07-29T07:19:09;0.55;;;0.55;;
50002;SDS011;35889;51.442;6.408;2022-07-29T07:21:34;0.60;;;0.60;;
50002;SDS011;35889;51.442;6.408;2022-07-29T07:24:00;0.60;;;0.60;;
50002;SDS011;35889;51.442;6.408;2022-07-29T07:26:25;0.70;;;0.70;;
50002;SDS011;35889;51.442;6.408;2022-07-29T07:28:51;0.60;;;0.60;;
50002;SDS011;35889;51.442;6.408;2022-07-29T07:31:16;0.60;;;0.60;;
50002;SDS011;35889;51.442;6.408;2022-07-29T07:33:41;0.60;;;0.60;;
50002;SDS011;35889;51.442;6.408;2022-07-29T07:36:07;0.60;;;0.60;;
50002;SDS011;35889;51.442;6.408;2022-07-29T07:38:32;0.60;;;0.60;;
50002;SDS011;35889;51.442;6.408;2022-07-29T07:40:57;0.60;;;0.60;;
50002;SDS011;35889;51.442;6.408;2022-07-29T07:43:22;0.60;;;0.60;;
50002;SDS011;35889;51.442;6.408;2022-07-29T07:45:48;0.70;;;0.70;;
50002;SDS011;35889;51.442;6.408;2022-07-29T07:48:13;0.60;;;0.60;;
50002;SDS011;35889;51.442;6.408;2022-07-29T07:50:38;0.60;;;0.60;;
50002;SDS011;35889;51.442;6.408;2022-07-29T07:53:04;0.60;;;0.60;;
50002;SDS011;35889;51.442;6.408;2022-07-29T07:55:29;0.60;;;0.60;;
50002;SDS011;35889;51.442;6.408;2022-07-29T07:57:54;0.70;;;0.70;;
50002;SDS011;35889;51.442;6.408;2022-07-29T08:00:20;0.60;;;0.60;;
50002;SDS011;35889;51.442;6.408;2022-07-29T08:02:46;0.60;;;0.60;;
50002;SDS011;35889;51.442;6.408;2022-07-29T08:05:11;0.60;;;0.60;;
50002;SDS011;35889;51.442;6.408;2022-07-29T08:07:40;0.50;;;0.50;;
50002;SDS011;35889;51.442;6.408;2022-07-29T08:10:06;0.60;;;0.60;;
50002;SDS011;35889;51.442;6.408;2022-07-29T08:12:31;0.60;;;0.60;;
50002;SDS011;35889;51.442;6.408;2022-07-29T08:14:56;0.50;;;0.50;;
50002;SDS011;35889;51.442;6.408;2022-07-29T08:17:22;0.68;;;0.68;;
50002;SDS011;35889;51.442;6.408;2022-07-29T08:19:47;0.63;;;0.63;;
50002;SDS011;35889;51.442;6.408;2022-07-29T08:22:13;0.60;;;0.60;;
50002;SDS011;35889;51.442;6.408;2022-07-29T08:24:39;0.60;;;0.60;;
50002;SDS011;35889;51.442;6.408;2022-07-29T08:27:17;0.60;;;0.60;;
50002;SDS011;35889;51.442;6.408;2022-07-29T08:29:43;0.50;;;0.50;;
50002;SDS011;35889;51.442;6.408;2022-07-29T08:32:08;0.60;;;0.60;;
50002;SDS011;35889;51.442;6.408;2022-07-29T08:34:33;0.60;;;0.60;;
50002;SDS011;35889;51.442;6.408;2022-07-29T08:36:58;0.60;;;0.60;;
50002;SDS011;35889;51.442;6.408;2022-07-29T08:39:24;0.60;;;0.60;;
50002;SDS011;35889;51.442;6.408;2022-07-29T08:41:49;0.60;;;0.60;;
50002;SDS011;35889;51.442;6.408;2022-07-29T08:44:18;0.60;;;0.60;;
50002;SDS011;35889;51.442;6.408;2022-07-29T08:46:44;0.70;;;0.70;;
50002;SDS011;35889;51.442;6.408;2022-07-29T08:49:09;0.60;;;0.60;;
50002;SDS011;35889;51.442;6.408;2022-07-29T08:51:35;0.60;;;0.60;;
50002;SDS011;35889;51.442;6.408;2022-07-29T08:54:01;0.60;;;0.60;;
50002;SDS011;35889;51.442;6.408;2022-07-29T08:56:26;0.60;;;0.60;;
50002;SDS011;35889;51.442;6.408;2022-07-29T08:58:52;0.60;;;0.60;;
50002;SDS011;35889;51.442;6.408;2022-07-29T09:01:22;0.60;;;0.60;;
50002;SDS011;35889;51.442;6.408;2022-07-29T09:03:48;0.60;;;0.60;;
50002;SDS011;35889;51.442;6.408;2022-07-29T09:06:14;0.60;;;0.60;;
50002;SDS011;35889;51.442;6.408;2022-07-29T09:08:40;0.70;;;0.70;;
50002;SDS011;35889;51.442;6.408;2022-07-29T09:11:05;0.70;;;0.70;;
50002;SDS011;35889;51.442;6.408;2022-07-29T09:13:32;0.60;;;0.60;;
50002;SDS011;35889;51.442;6.408;2022-07-29T09:15:57;0.60;;;0.60;;
50002;SDS011;35889;51.442;6.408;2022-07-29T09:18:56;0.60;;;0.60;;
50002;SDS011;35889;51.442;6.408;2022-07-29T09:21:15;0.60;;;0.60;;
50002;SDS011;35889;51.442;6.408;2022-07-29T09:26:27;0.60;;;0.60;;
50002;SDS011;35889;51.442;6.408;2022-07-29T09:28:52;0.60;;;0.60;;
50002;SDS011;35889;51.442;6.408;2022-07-29T09:31:18;0.60;;;0.60;;
50002;SDS011;35889;51.442;6.408;2022-07-29T09:33:51;0.60;;;0.60;;
50002;SDS011;35889;51.442;6.408;2022-07-29T09:36:16;0.60;;;0.60;;
50002;SDS011;35889;51.442;6.408;2022-07-29T09:38:42;0.60;;;0.60;;
50002;SDS011;35889;51.442;6.408;2022-07-29T09:41:07;0.60;;;0.60;;
50002;SDS011;35889;51.442;6.408;2022-07-29T09:43:35;0.60;;;0.60;;
50002;SDS011;35889;51.442;6.408;2022-07-29T09:46:09;0.70;;;0.70;;
50002;SDS011;35889;51.442;6.408;2022-07-29T09:48:35;0.68;;;0.68;;
50002;SDS011;35889;51.442;6.408;2022-07-29T09:51:00;0.70;;;0.70;;
50002;SDS011;35889;51.442;6.408;2022-07-29T09:53:36;0.70;;;0.70;;
50002;SDS011;35889;51.442;6.408;2022-07-29T09:56:02;0.70;;;0.70;;
50002;SDS011;35889;51.442;6.408;2022-07-29T09:58:28;0.70;;;0.70;;
50002;SDS011;35889;51.442;6.408;2022-07-29T10:00:53;0.70;;;0.70;;
50002;SDS011;35889;51.442;6.408;2022-07-29T10:03:19;0.63;;;0.63;;
50002;SDS011;35889;51.442;6.408;2022-07-29T10:05:45;0.65;;;0.65;;
50002;SDS011;35889;51.442;6.408;2022-07-29T10:08:11;0.70;;;0.70;;
50002;SDS011;35889;51.442;6.408;2022-07-29T10:10:38;0.70;;;0.70;;
50002;SDS011;35889;51.442;6.408;2022-07-29T10:13:04;0.80;;;0.80;;
50002;SDS011;35889;51.442;6.408;2022-07-29T10:15:30;0.80;;;0.80;;
50002;SDS011;35889;51.442;6.408;2022-07-29T10:17:57;0.70;;;0.70;;
50002;SDS011;35889;51.442;6.408;2022-07-29T10:20:23;0.70;;;0.70;;
50002;SDS011;35889;51.442;6.408;2022-07-29T10:22:49;0.70;;;0.70;;
50002;SDS011;35889;51.442;6.408;2022-07-29T10:25:15;0.70;;;0.70;;
50002;SDS011;35889;51.442;6.408;2022-07-29T10:27:42;0.73;;;0.73;;
50002;SDS011;35889;51.442;6.408;2022-07-29T10:30:08;0.80;;;0.80;;
50002;SDS011;35889;51.442;6.408;2022-07-29T10:37:56;0.70;;;0.70;;
50002;SDS011;35889;51.442;6.408;2022-07-29T10:43:28;0.60;;;0.60;;
50002;SDS011;35889;51.442;6.408;2022-07-29T10:45:58;0.60;;;0.60;;
50002;SDS011;35889;51.442;6.408;2022-07-29T10:50:53;0.67;;;0.67;;
50002;SDS011;35889;51.442;6.408;2022-07-29T10:53:20;0.60;;;0.60;;
50002;SDS011;35889;51.442;6.408;2022-07-29T10:55:46;0.60;;;0.60;;
50002;SDS011;35889;51.442;6.408;2022-07-29T10:58:20;0.60;;;0.60;;
50002;SDS011;35889;51.442;6.408;2022-07-29T11:00:46;0.70;;;0.70;;
50002;SDS011;35889;51.442;6.408;2022-07-29T11:06:13;0.60;;;0.60;;
50002;SDS011;35889;51.442;6.408;2022-07-29T11:08:39;0.60;;;0.60;;
50002;SDS011;35889;51.442;6.408;2022-07-29T11:13:45;0.60;;;0.60;;
50002;SDS011;35889;51.442;6.408;2022-07-29T11:16:18;0.60;;;0.60;;
50002;SDS011;35889;51.442;6.408;2022-07-29T11:21:37;0.70;;;0.70;;
50002;SDS011;35889;51.442;6.408;2022-07-29T11:24:15;0.60;;;0.60;;
50002;SDS011;35889;51.442;6.408;2022-07-29T11:26:41;0.60;;;0.60;;
50002;SDS011;35889;51.442;6.408;2022-07-29T11:29:17;0.60;;;0.60;;
50002;SDS011;35889;51.442;6.408;2022-07-29T11:31:45;0.70;;;0.70;;
50002;SDS011;35889;51.442;6.408;2022-07-29T11:34:27;0.60;;;0.60;;
50002;SDS011;35889;51.442;6.408;2022-07-29T11:39:31;0.70;;;0.70;;
50002;SDS011;35889;51.442;6.408;2022-07-29T11:44:53;0.70;;;0.70;;
50002;SDS011;35889;51.442;6.408;2022-07-29T11:47:21;0.60;;;0.60;;
50002;SDS011;35889;51.442;6.408;2022-07-29T11:49:47;0.70;;;0.70;;
50002;SDS011;35889;51.442;6.408;2022-07-29T11:52:12;0.70;;;0.70;;
50002;SDS011;35889;51.442;6.408;2022-07-29T11:54:38;0.70;;;0.70;;
50002;SDS011;35889;51.442;6.408;2022-07-29T11:57:06;0.70;;;0.70;;
50002;SDS011;35889;51.442;6.408;2022-07-29T11:59:31;0.68;;;0.68;;
50002;SDS011;35889;51.442;6.408;2022-07-29T12:02:03;0.60;;;0.60;;
50002;SDS011;35889;51.442;6.408;2022-07-29T12:04:28;0.70;;;0.70;;
50002;SDS011;35889;51.442;6.408;2022-07-29T12:06:54;0.70;;;0.70;;
50002;SDS011;35889;51.442;6.408;2022-07-29T12:09:20;0.60;;;0.60;;
50002;SDS011;35889;51.442;6.408;2022-07-29T12:11:46;0.70;;;0.70;;
50002;SDS011;35889;51.442;6.408;2022-07-29T12:14:25;0.70;;;0.70;;
50002;SDS011;35889;51.442;6.408;2022-07-29T12:16:51;0.60;;;0.60;;
50002;SDS011;35889;51.442;6.408;2022-07-29T12:19:16;0.70;;;0.70;;
50002;SDS011;35889;51.442;6.408;2022-07-29T12:24:09;0.60;;;0.60;;
50002;SDS011;35889;51.442;6.408;2022-07-29T12:26:35;0.70;;;0.70;;
50002;SDS011;35889;51.442;6.408;2022-07-29T12:29:00;0.70;;;0.70;;
50002;SDS011;35889;51.442;6.408;2022-07-29T12:31:26;0.70;;;0.70;;
50002;SDS011;35889;51.442;6.408;2022-07-29T12:33:52;0.70;;;0.70;;
50002;SDS011;35889;51.442;6.408;2022-07-29T12:36:18;0.70;;;0.70;;
50002;SDS011;35889;51.442;6.408;2022-07-29T12:38:43;0.60;;;0.60;;
50002;SDS011;35889;51.442;6.408;2022-07-29T12:41:09;0.70;;;0.70;;
50002;SDS011;35889;51.442;6.408;2022-07-29T12:43:35;0.60;;;0.60;;
50002;SDS011;35889;51.442;6.408;2022-07-29T12:46:11;0.63;;;0.63;;
50002;SDS011;35889;51.442;6.408;2022-07-29T12:48:37;0.60;;;0.60;;
50002;SDS011;35889;51.442;6.408;2022-07-29T12:51:03;0.70;;;0.70;;
50002;SDS011;35889;51.442;6.408;2022-07-29T12:53:29;0.70;;;0.70;;
50002;SDS011;35889;51.442;6.408;2022-07-29T12:55:55;0.70;;;0.70;;
50002;SDS011;35889;51.442;6.408;2022-07-29T12:58:35;0.70;;;0.70;;
50002;SDS011;35889;51.442;6.408;2022-07-29T13:09:12;0.70;;;0.70;;
50002;SDS011;35889;51.442;6.408;2022-07-29T13:11:39;0.70;;;0.70;;
50002;SDS011;35889;51.442;6.408;2022-07-29T13:14:06;0.70;;;0.70;;
50002;SDS011;35889;51.442;6.408;2022-07-29T13:16:31;0.80;;;0.80;;
50002;SDS011;35889;51.442;6.408;2022-07-29T13:19:03;0.70;;;0.70;;
50002;SDS011;35889;51.442;6.408;2022-07-29T13:21:28;0.70;;;0.70;;
50002;SDS011;35889;51.442;6.408;2022-07-29T13:23:54;0.70;;;0.70;;
50002;SDS011;35889;51.442;6.408;2022-07-29T13:26:19;0.70;;;0.70;;
50002;SDS011;35889;51.442;6.408;2022-07-29T13:28:44;0.70;;;0.70;;
50002;SDS011;35889;51.442;6.408;2022-07-29T13:31:10;0.70;;;0.70;;
50002;SDS011;35889;51.442;6.408;2022-07-29T13:33:35;0.70;;;0.70;;
50002;SDS011;35889;51.442;6.408;2022-07-29T13:36:00;0.70;;;0.70;;
50002;SDS011;35889;51.442;6.408;2022-07-29T13:38:25;0.65;;;0.65;;
50002;SDS011;35889;51.442;6.408;2022-07-29T13:40:52;0.70;;;0.70;;
50002;SDS011;35889;51.442;6.408;2022-07-29T13:43:17;0.70;;;0.70;;
50002;SDS011;35889;51.442;6.408;2022-07-29T13:45:42;0.70;;;0.70;;
50002;SDS011;35889;51.442;6.408;2022-07-29T13:48:07;0.60;;;0.60;;
50002;SDS011;35889;51.442;6.408;2022-07-29T13:50:33;0.70;;;0.70;;
50002;SDS011;35889;51.442;6.408;2022-07-29T13:52:58;0.70;;;0.70;;
50002;SDS011;35889;51.442;6.408;2022-07-29T13:55:23;0.80;;;0.80;;
50002;SDS011;35889;51.442;6.408;2022-07-29T13:57:49;1.00;;;1.00;;
50002;SDS011;35889;51.442;6.408;2022-07-29T14:00:14;1.10;;;1.10;;
50002;SDS011;35889;51.442;6.408;2022-07-29T14:02:40;1.10;;;1.10;;
50002;SDS011;35889;51.442;6.408;2022-07-29T14:05:06;1.10;;;1.10;;
50002;SDS011;35889;51.442;6.408;2022-07-29T14:07:31;1.10;;;1.10;;
50002;SDS011;35889;51.442;6.408;2022-07-29T14:09:56;1.10;;;1.10;;
50002;SDS011;35889;51.442;6.408;2022-07-29T14:12:22;1.10;;;1.10;;
50002;SDS011;35889;51.442;6.408;2022-07-29T14:14:47;1.10;;;1.10;;
50002;SDS011;35889;51.442;6.408;2022-07-29T14:17:13;1.10;;;1.10;;
50002;SDS011;35889;51.442;6.408;2022-07-29T14:19:38;1.10;;;1.10;;
50002;SDS011;35889;51.442;6.408;2022-07-29T14:22:04;1.10;;;1.10;;
50002;SDS011;35889;51.442;6.408;2022-07-29T14:24:30;1.10;;;1.10;;
50002;SDS011;35889;51.442;6.408;2022-07-29T14:26:56;1.10;;;1.10;;
50002;SDS011;35889;51.442;6.408;2022-07-29T14:29:22;1.10;;;1.10;;
50002;SDS011;35889;51.442;6.408;2022-07-29T14:31:47;1.10;;;1.10;;
50002;SDS011;35889;51.442;6.408;2022-07-29T14:34:12;1.00;;;1.00;;
50002;SDS011;35889;51.442;6.408;2022-07-29T14:36:37;1.10;;;1.10;;
50002;SDS011;35889;51.442;6.408;2022-07-29T14:39:03;1.10;;;1.10;;
50002;SDS011;35889;51.442;6.408;2022-07-29T14:41:28;1.10;;;1.10;;
50002;SDS011;35889;51.442;6.408;2022-07-29T14:43:54;1.10;;;1.10;;
50002;SDS011;35889;51.442;6.408;2022-07-29T14:46:19;1.10;;;1.10;;
50002;SDS011;35889;51.442;6.408;2022-07-29T14:48:45;1.10;;;1.10;;
50002;SDS011;35889;51.442;6.408;2022-07-29T14:51:10;1.10;;;1.10;;
50002;SDS011;35889;51.442;6.408;2022-07-29T14:53:35;1.10;;;1.10;;
50002;SDS011;35889;51.442;6.408;2022-07-29T14:56:01;1.10;;;1.10;;
50002;SDS011;35889;51.442;6.408;2022-07-29T14:58:26;1.17;;;1.17;;
50002;SDS011;35889;51.442;6.408;2022-07-29T15:00:51;1.10;;;1.10;;
50002;SDS011;35889;51.442;6.408;2022-07-29T15:03:17;1.10;;;1.10;;
50002;SDS011;35889;51.442;6.408;2022-07-29T15:05:42;1.13;;;1.13;;
50002;SDS011;35889;51.442;6.408;2022-07-29T15:08:08;1.20;;;1.20;;
50002;SDS011;35889;51.442;6.408;2022-07-29T15:10:33;1.20;;;1.20;;
50002;SDS011;35889;51.442;6.408;2022-07-29T15:12:58;1.20;;;1.20;;
50002;SDS011;35889;51.442;6.408;2022-07-29T15:15:24;1.10;;;1.10;;
50002;SDS011;35889;51.442;6.408;2022-07-29T15:17:49;1.17;;;1.17;;
50002;SDS011;35889;51.442;6.408;2022-07-29T15:20:14;1.17;;;1.17;;
50002;SDS011;35889;51.442;6.408;2022-07-29T15:22:39;1.20;;;1.20;;
50002;SDS011;35889;51.442;6.408;2022-07-29T15:25:07;1.20;;;1.20;;
50002;SDS011;35889;51.442;6.408;2022-07-29T15:27:32;1.20;;;1.20;;
50002;SDS011;35889;51.442;6.408;2022-07-29T15:29:57;1.10;;;1.10;;
50002;SDS011;35889;51.442;6.408;2022-07-29T15:32:23;1.20;;;1.20;;